sensor_id;sensor_type;location;lat;lon;timestamp;temperature;humidity
12013;DHT22;6065;48.138;16.402;2023-11-19T00:01:32;3.90;99.90
12013;DHT22;6065;48.138;16.402;2023-11-19T00:03:59;3.90;99.90
12013;DHT22;6065;48.138;16.402;2023-11-19T00:06:27;3.80;99.90
12013;DHT22;6065;48.138;16.402;2023-11-19T00:08:54;3.60;99.90
12013;DHT22;6065;48.138;16.402;2023-11-19T00:11:21;3.60;99.90
12013;DHT22;6065;48.138;16.402;2023-11-19T00:13:47;3.60;99.90
12013;DHT22;6065;48.138;16.402;2023-11-19T00:16:14;3.60;99.90
12013;DHT22;6065;48.138;16.402;2023-11-19T00:18:41;3.50;99.90
12013;DHT22;6065;48.138;16.402;2023-11-19T00:21:08;3.50;99.90
12013;DHT22;6065;48.138;16.402;2023-11-19T00:23:37;3.50;99.90
12013;DHT22;6065;48.138;16.402;2023-11-19T00:26:04;3.50;99.90
12013;DHT22;6065;48.138;16.402;2023-11-19T00:28:31;3.50;99.90
12013;DHT22;6065;48.138;16.402;2023-11-19T00:30:59;3.40;99.90
12013;DHT22;6065;48.138;16.402;2023-11-19T00:33:26;3.50;99.90
12013;DHT22;6065;48.138;16.402;2023-11-19T00:35:51;3.50;99.90
12013;DHT22;6065;48.138;16.402;2023-11-19T00:38:18;3.50;99.90
12013;DHT22;6065;48.138;16.402;2023-11-19T00:40:46;3.50;99.90
12013;DHT22;6065;48.138;16.402;2023-11-19T00:43:13;3.50;99.90
12013;DHT22;6065;48.138;16.402;2023-11-19T00:45:39;3.60;99.90
12013;DHT22;6065;48.138;16.402;2023-11-19T00:48:06;3.60;99.90
12013;DHT22;6065;48.138;16.402;2023-11-19T00:50:33;3.60;99.90
12013;DHT22;6065;48.138;16.402;2023-11-19T00:53:00;3.60;99.90
12013;DHT22;6065;48.138;16.402;2023-11-19T00:55:29;3.70;99.90
12013;DHT22;6065;48.138;16.402;2023-11-19T00:57:57;3.70;99.90
12013;DHT22;6065;48.138;16.402;2023-11-19T01:00:24;3.80;99.90
12013;DHT22;6065;48.138;16.402;2023-11-19T01:02:52;3.90;99.90
12013;DHT22;6065;48.138;16.402;2023-11-19T01:05:19;3.90;99.90
12013;DHT22;6065;48.138;16.402;2023-11-19T01:07:47;3.90;99.90
12013;DHT22;6065;48.138;16.402;2023-11-19T01:10:14;3.90;99.90
12013;DHT22;6065;48.138;16.402;2023-11-19T01:12:42;3.90;99.90
12013;DHT22;6065;48.138;16.402;2023-11-19T01:15:10;3.90;99.90
12013;DHT22;6065;48.138;16.402;2023-11-19T01:17:37;3.90;99.90
12013;DHT22;6065;48.138;16.402;2023-11-19T01:20:04;3.90;99.90
12013;DHT22;6065;48.138;16.402;2023-11-19T01:22:32;3.80;99.90
12013;DHT22;6065;48.138;16.402;2023-11-19T01:24:58;3.80;99.90
12013;DHT22;6065;48.138;16.402;2023-11-19T01:27:25;3.90;99.90
12013;DHT22;6065;48.138;16.402;2023-11-19T01:29:52;3.80;99.90
12013;DHT22;6065;48.138;16.402;2023-11-19T01:32:20;3.90;99.90
12013;DHT22;6065;48.138;16.402;2023-11-19T01:34:47;3.90;99.90
12013;DHT22;6065;48.138;16.402;2023-11-19T01:37:13;3.90;99.90
12013;DHT22;6065;48.138;16.402;2023-11-19T01:39:40;3.90;99.90
12013;DHT22;6065;48.138;16.402;2023-11-19T01:42:09;3.90;99.90
12013;DHT22;6065;48.138;16.402;2023-11-19T01:44:37;3.90;99.90
12013;DHT22;6065;48.138;16.402;2023-11-19T01:47:04;4.00;99.90
12013;DHT22;6065;48.138;16.402;2023-11-19T01:49:32;3.90;99.90
12013;DHT22;6065;48.138;16.402;2023-11-19T01:51:59;3.90;99.90
12013;DHT22;6065;48.138;16.402;2023-11-19T01:54:26;3.90;99.90
12013;DHT22;6065;48.138;16.402;2023-11-19T01:56:54;4.00;99.90
12013;DHT22;6065;48.138;16.402;2023-11-19T01:59:22;3.90;99.90
12013;DHT22;6065;48.138;16.402;2023-11-19T02:01:51;3.90;99.90
12013;DHT22;6065;48.138;16.402;2023-11-19T02:04:19;4.00;99.90
12013;DHT22;6065;48.138;16.402;2023-11-19T02:06:47;3.90;99.90
12013;DHT22;6065;48.138;16.402;2023-11-19T02:09:15;3.90;99.90
12013;DHT22;6065;48.138;16.402;2023-11-19T02:11:44;4.00;99.90
12013;DHT22;6065;48.138;16.402;2023-11-19T02:14:14;4.00;99.90
12013;DHT22;6065;48.138;16.402;2023-11-19T02:16:41;4.10;99.90
12013;DHT22;6065;48.138;16.402;2023-11-19T02:19:08;4.10;99.90
12013;DHT22;6065;48.138;16.402;2023-11-19T02:21:36;4.10;99.90
12013;DHT22;6065;48.138;16.402;2023-11-19T02:24:05;4.10;99.90
12013;DHT22;6065;48.138;16.402;2023-11-19T02:26:34;4.10;99.90
12013;DHT22;6065;48.138;16.402;2023-11-19T02:29:05;4.10;99.90
12013;DHT22;6065;48.138;16.402;2023-11-19T02:31:33;4.10;99.90
12013;DHT22;6065;48.138;16.402;2023-11-19T02:34:00;4.00;99.90
12013;DHT22;6065;48.138;16.402;2023-11-19T02:36:27;4.10;99.90
12013;DHT22;6065;48.138;16.402;2023-11-19T02:38:54;4.10;99.90
12013;DHT22;6065;48.138;16.402;2023-11-19T02:41:21;4.00;99.90
12013;DHT22;6065;48.138;16.402;2023-11-19T02:43:47;4.00;99.90
12013;DHT22;6065;48.138;16.402;2023-11-19T02:46:16;4.10;99.90
12013;DHT22;6065;48.138;16.402;2023-11-19T02:48:43;4.00;99.90
12013;DHT22;6065;48.138;16.402;2023-11-19T02:51:11;4.00;99.90
12013;DHT22;6065;48.138;16.402;2023-11-19T02:53:38;4.00;99.90
12013;DHT22;6065;48.138;16.402;2023-11-19T02:56:05;4.00;99.90
12013;DHT22;6065;48.138;16.402;2023-11-19T02:58:42;4.10;99.90
12013;DHT22;6065;48.138;16.402;2023-11-19T03:01:10;4.00;99.90
12013;DHT22;6065;48.138;16.402;2023-11-19T03:03:46;4.00;99.90
12013;DHT22;6065;48.138;16.402;2023-11-19T03:06:14;4.00;99.90
12013;DHT22;6065;48.138;16.402;2023-11-19T03:08:41;4.00;99.90
12013;DHT22;6065;48.138;16.402;2023-11-19T03:11:08;3.90;99.90
12013;DHT22;6065;48.138;16.402;2023-11-19T03:13:35;3.90;99.90
12013;DHT22;6065;48.138;16.402;2023-11-19T03:16:01;3.80;99.90
12013;DHT22;6065;48.138;16.402;2023-11-19T03:18:28;3.70;99.90
12013;DHT22;6065;48.138;16.402;2023-11-19T03:20:56;3.70;99.90
12013;DHT22;6065;48.138;16.402;2023-11-19T03:23:23;3.70;99.90
12013;DHT22;6065;48.138;16.402;2023-11-19T03:25:53;3.70;99.90
12013;DHT22;6065;48.138;16.402;2023-11-19T03:28:20;3.70;99.90
12013;DHT22;6065;48.138;16.402;2023-11-19T03:30:46;3.70;99.90
12013;DHT22;6065;48.138;16.402;2023-11-19T03:33:13;3.70;99.90
12013;DHT22;6065;48.138;16.402;2023-11-19T03:35:40;3.70;99.90
12013;DHT22;6065;48.138;16.402;2023-11-19T03:38:08;3.70;99.90
12013;DHT22;6065;48.138;16.402;2023-11-19T03:40:35;3.70;99.90
12013;DHT22;6065;48.138;16.402;2023-11-19T03:43:03;3.70;99.90
12013;DHT22;6065;48.138;16.402;2023-11-19T03:45:30;3.80;99.90
12013;DHT22;6065;48.138;16.402;2023-11-19T03:47:57;3.90;99.90
12013;DHT22;6065;48.138;16.402;2023-11-19T03:50:23;3.90;99.90
12013;DHT22;6065;48.138;16.402;2023-11-19T03:52:50;3.90;99.90
12013;DHT22;6065;48.138;16.402;2023-11-19T03:55:19;4.00;99.90
12013;DHT22;6065;48.138;16.402;2023-11-19T03:57:45;3.90;99.90
12013;DHT22;6065;48.138;16.402;2023-11-19T04:00:14;3.90;99.90
12013;DHT22;6065;48.138;16.402;2023-11-19T04:02:42;3.90;99.90
12013;DHT22;6065;48.138;16.402;2023-11-19T04:05:09;4.00;99.90
12013;DHT22;6065;48.138;16.402;2023-11-19T04:07:36;4.00;99.90
12013;DHT22;6065;48.138;16.402;2023-11-19T04:10:03;4.00;99.90
12013;DHT22;6065;48.138;16.402;2023-11-19T04:12:31;4.00;99.90
12013;DHT22;6065;48.138;16.402;2023-11-19T04:14:58;4.00;99.90
12013;DHT22;6065;48.138;16.402;2023-11-19T04:17:25;4.00;99.90
12013;DHT22;6065;48.138;16.402;2023-11-19T04:19:51;3.90;99.90
12013;DHT22;6065;48.138;16.402;2023-11-19T04:22:18;4.00;99.90
12013;DHT22;6065;48.138;16.402;2023-11-19T04:24:45;4.00;99.90
12013;DHT22;6065;48.138;16.402;2023-11-19T04:27:11;4.00;99.90
12013;DHT22;6065;48.138;16.402;2023-11-19T04:29:40;4.00;99.90
12013;DHT22;6065;48.138;16.402;2023-11-19T04:32:06;4.00;99.90
12013;DHT22;6065;48.138;16.402;2023-11-19T04:34:34;4.00;99.90
12013;DHT22;6065;48.138;16.402;2023-11-19T04:37:01;4.00;99.90
12013;DHT22;6065;48.138;16.402;2023-11-19T04:39:28;4.00;99.90
12013;DHT22;6065;48.138;16.402;2023-11-19T04:41:55;4.00;99.90
12013;DHT22;6065;48.138;16.402;2023-11-19T04:44:22;4.00;99.90
12013;DHT22;6065;48.138;16.402;2023-11-19T04:46:50;4.00;99.90
12013;DHT22;6065;48.138;16.402;2023-11-19T04:49:17;4.00;99.90
12013;DHT22;6065;48.138;16.402;2023-11-19T04:51:44;4.00;99.90
12013;DHT22;6065;48.138;16.402;2023-11-19T04:54:12;4.00;99.90
12013;DHT22;6065;48.138;16.402;2023-11-19T04:56:39;4.00;99.90
12013;DHT22;6065;48.138;16.402;2023-11-19T04:59:06;4.00;99.90
12013;DHT22;6065;48.138;16.402;2023-11-19T05:01:34;4.00;99.90
12013;DHT22;6065;48.138;16.402;2023-11-19T05:04:02;4.00;99.90
12013;DHT22;6065;48.138;16.402;2023-11-19T05:06:29;4.00;99.90
12013;DHT22;6065;48.138;16.402;2023-11-19T05:08:56;4.00;99.90
12013;DHT22;6065;48.138;16.402;2023-11-19T05:11:22;4.00;99.90
12013;DHT22;6065;48.138;16.402;2023-11-19T05:13:49;4.00;99.90
12013;DHT22;6065;48.138;16.402;2023-11-19T05:16:16;4.00;99.90
12013;DHT22;6065;48.138;16.402;2023-11-19T05:18:44;4.00;99.90
12013;DHT22;6065;48.138;16.402;2023-11-19T05:21:12;4.00;99.90
12013;DHT22;6065;48.138;16.402;2023-11-19T05:23:39;4.00;99.90
12013;DHT22;6065;48.138;16.402;2023-11-19T05:26:07;4.10;99.90
12013;DHT22;6065;48.138;16.402;2023-11-19T05:28:33;4.10;99.90
12013;DHT22;6065;48.138;16.402;2023-11-19T05:31:01;4.00;99.90
12013;DHT22;6065;48.138;16.402;2023-11-19T05:33:27;4.10;99.90
12013;DHT22;6065;48.138;16.402;2023-11-19T05:35:54;4.10;99.90
12013;DHT22;6065;48.138;16.402;2023-11-19T05:38:23;4.10;99.90
12013;DHT22;6065;48.138;16.402;2023-11-19T05:40:50;4.10;99.90
12013;DHT22;6065;48.138;16.402;2023-11-19T05:43:17;4.10;99.90
12013;DHT22;6065;48.138;16.402;2023-11-19T05:45:44;4.10;99.90
12013;DHT22;6065;48.138;16.402;2023-11-19T05:48:11;4.00;99.90
12013;DHT22;6065;48.138;16.402;2023-11-19T05:50:38;4.00;99.90
12013;DHT22;6065;48.138;16.402;2023-11-19T05:53:05;4.10;99.90
12013;DHT22;6065;48.138;16.402;2023-11-19T05:55:36;4.10;99.90
12013;DHT22;6065;48.138;16.402;2023-11-19T05:58:10;4.10;99.90
12013;DHT22;6065;48.138;16.402;2023-11-19T06:00:37;4.10;99.90
12013;DHT22;6065;48.138;16.402;2023-11-19T06:03:04;4.10;99.90
12013;DHT22;6065;48.138;16.402;2023-11-19T06:05:31;4.10;99.90
12013;DHT22;6065;48.138;16.402;2023-11-19T06:07:58;4.10;99.90
12013;DHT22;6065;48.138;16.402;2023-11-19T06:10:24;4.10;99.90
12013;DHT22;6065;48.138;16.402;2023-11-19T06:12:57;4.10;99.90
12013;DHT22;6065;48.138;16.402;2023-11-19T06:15:25;4.10;99.90
12013;DHT22;6065;48.138;16.402;2023-11-19T06:17:51;4.10;99.90
12013;DHT22;6065;48.138;16.402;2023-11-19T06:20:18;4.10;99.90
12013;DHT22;6065;48.138;16.402;2023-11-19T06:22:46;4.10;99.90
12013;DHT22;6065;48.138;16.402;2023-11-19T06:25:13;4.10;99.90
12013;DHT22;6065;48.138;16.402;2023-11-19T06:27:40;4.00;99.90
12013;DHT22;6065;48.138;16.402;2023-11-19T06:30:09;4.00;99.90
12013;DHT22;6065;48.138;16.402;2023-11-19T06:32:37;4.00;99.90
12013;DHT22;6065;48.138;16.402;2023-11-19T06:35:04;4.00;99.90
12013;DHT22;6065;48.138;16.402;2023-11-19T06:37:31;4.00;99.90
12013;DHT22;6065;48.138;16.402;2023-11-19T06:39:57;4.00;99.90
12013;DHT22;6065;48.138;16.402;2023-11-19T06:42:24;4.00;99.90
12013;DHT22;6065;48.138;16.402;2023-11-19T06:44:51;4.00;99.90
12013;DHT22;6065;48.138;16.402;2023-11-19T06:47:19;4.00;99.90
12013;DHT22;6065;48.138;16.402;2023-11-19T06:49:46;4.00;99.90
12013;DHT22;6065;48.138;16.402;2023-11-19T06:52:13;4.00;99.90
12013;DHT22;6065;48.138;16.402;2023-11-19T06:54:39;4.00;99.90
12013;DHT22;6065;48.138;16.402;2023-11-19T06:57:10;4.00;99.90
12013;DHT22;6065;48.138;16.402;2023-11-19T06:59:37;4.00;99.90
12013;DHT22;6065;48.138;16.402;2023-11-19T07:02:04;4.00;99.90
12013;DHT22;6065;48.138;16.402;2023-11-19T07:04:32;4.00;99.90
12013;DHT22;6065;48.138;16.402;2023-11-19T07:06:59;4.00;99.90
12013;DHT22;6065;48.138;16.402;2023-11-19T07:09:26;4.00;99.90
12013;DHT22;6065;48.138;16.402;2023-11-19T07:11:53;4.00;99.90
12013;DHT22;6065;48.138;16.402;2023-11-19T07:14:20;4.10;99.90
12013;DHT22;6065;48.138;16.402;2023-11-19T07:16:48;4.10;99.90
12013;DHT22;6065;48.138;16.402;2023-11-19T07:19:16;4.10;99.90
12013;DHT22;6065;48.138;16.402;2023-11-19T07:21:44;4.10;99.90
12013;DHT22;6065;48.138;16.402;2023-11-19T07:24:11;4.10;99.90
12013;DHT22;6065;48.138;16.402;2023-11-19T07:26:40;4.20;99.90
12013;DHT22;6065;48.138;16.402;2023-11-19T07:29:07;4.10;99.90
12013;DHT22;6065;48.138;16.402;2023-11-19T07:31:34;4.10;99.90
12013;DHT22;6065;48.138;16.402;2023-11-19T07:34:01;4.10;99.90
12013;DHT22;6065;48.138;16.402;2023-11-19T07:36:27;4.10;99.90
12013;DHT22;6065;48.138;16.402;2023-11-19T07:38:56;4.10;99.90
12013;DHT22;6065;48.138;16.402;2023-11-19T07:41:23;4.20;99.90
12013;DHT22;6065;48.138;16.402;2023-11-19T07:43:50;4.10;99.90
12013;DHT22;6065;48.138;16.402;2023-11-19T07:46:18;4.10;99.90
12013;DHT22;6065;48.138;16.402;2023-11-19T07:48:45;4.10;99.90
12013;DHT22;6065;48.138;16.402;2023-11-19T07:51:12;4.10;99.90
12013;DHT22;6065;48.138;16.402;2023-11-19T07:53:39;4.10;99.90
12013;DHT22;6065;48.138;16.402;2023-11-19T07:56:07;4.10;99.90
12013;DHT22;6065;48.138;16.402;2023-11-19T07:58:34;4.10;99.90
12013;DHT22;6065;48.138;16.402;2023-11-19T08:01:02;4.20;99.90
12013;DHT22;6065;48.138;16.402;2023-11-19T08:03:29;4.20;99.90
12013;DHT22;6065;48.138;16.402;2023-11-19T08:05:56;4.10;99.90
12013;DHT22;6065;48.138;16.402;2023-11-19T08:08:23;4.10;99.90
12013;DHT22;6065;48.138;16.402;2023-11-19T08:10:50;4.20;99.90
12013;DHT22;6065;48.138;16.402;2023-11-19T08:13:19;4.20;99.90
12013;DHT22;6065;48.138;16.402;2023-11-19T08:15:46;4.20;99.90
12013;DHT22;6065;48.138;16.402;2023-11-19T08:18:13;4.20;99.90
12013;DHT22;6065;48.138;16.402;2023-11-19T08:20:40;4.30;99.90
12013;DHT22;6065;48.138;16.402;2023-11-19T08:23:08;4.30;99.90
12013;DHT22;6065;48.138;16.402;2023-11-19T08:25:35;4.30;99.90
12013;DHT22;6065;48.138;16.402;2023-11-19T08:28:02;4.20;99.90
12013;DHT22;6065;48.138;16.402;2023-11-19T08:30:30;4.20;99.90
12013;DHT22;6065;48.138;16.402;2023-11-19T08:32:57;4.20;99.90
12013;DHT22;6065;48.138;16.402;2023-11-19T08:35:25;4.30;99.90
12013;DHT22;6065;48.138;16.402;2023-11-19T08:37:52;4.30;99.90
12013;DHT22;6065;48.138;16.402;2023-11-19T08:40:19;4.30;99.90
12013;DHT22;6065;48.138;16.402;2023-11-19T08:42:46;4.40;99.90
12013;DHT22;6065;48.138;16.402;2023-11-19T08:45:13;4.40;99.90
12013;DHT22;6065;48.138;16.402;2023-11-19T08:47:41;4.50;99.90
12013;DHT22;6065;48.138;16.402;2023-11-19T08:50:08;4.60;99.90
12013;DHT22;6065;48.138;16.402;2023-11-19T08:52:35;4.60;99.90
12013;DHT22;6065;48.138;16.402;2023-11-19T08:55:01;4.60;99.90
12013;DHT22;6065;48.138;16.402;2023-11-19T08:57:30;4.70;99.90
12013;DHT22;6065;48.138;16.402;2023-11-19T08:59:58;4.70;99.90
12013;DHT22;6065;48.138;16.402;2023-11-19T09:02:24;4.70;99.90
12013;DHT22;6065;48.138;16.402;2023-11-19T09:04:53;4.70;99.90
12013;DHT22;6065;48.138;16.402;2023-11-19T09:07:19;4.70;99.90
12013;DHT22;6065;48.138;16.402;2023-11-19T09:09:46;4.70;99.90
12013;DHT22;6065;48.138;16.402;2023-11-19T09:12:13;4.80;99.90
12013;DHT22;6065;48.138;16.402;2023-11-19T09:14:40;4.80;99.90
12013;DHT22;6065;48.138;16.402;2023-11-19T09:17:07;4.80;99.90
12013;DHT22;6065;48.138;16.402;2023-11-19T09:19:35;4.80;99.90
12013;DHT22;6065;48.138;16.402;2023-11-19T09:22:03;4.80;99.90
12013;DHT22;6065;48.138;16.402;2023-11-19T09:24:30;4.80;99.90
12013;DHT22;6065;48.138;16.402;2023-11-19T09:26:57;4.90;99.90
12013;DHT22;6065;48.138;16.402;2023-11-19T09:29:23;4.90;99.90
12013;DHT22;6065;48.138;16.402;2023-11-19T09:31:50;5.00;99.90
12013;DHT22;6065;48.138;16.402;2023-11-19T09:34:17;5.00;99.90
12013;DHT22;6065;48.138;16.402;2023-11-19T09:36:43;5.00;99.90
12013;DHT22;6065;48.138;16.402;2023-11-19T09:39:12;5.10;99.90
12013;DHT22;6065;48.138;16.402;2023-11-19T09:41:40;5.10;99.90
12013;DHT22;6065;48.138;16.402;2023-11-19T09:44:07;5.20;99.90
12013;DHT22;6065;48.138;16.402;2023-11-19T09:46:34;5.20;99.90
12013;DHT22;6065;48.138;16.402;2023-11-19T09:49:05;5.20;99.90
12013;DHT22;6065;48.138;16.402;2023-11-19T09:51:34;5.20;99.90
12013;DHT22;6065;48.138;16.402;2023-11-19T09:54:01;5.30;99.90
12013;DHT22;6065;48.138;16.402;2023-11-19T09:56:29;5.20;99.90
12013;DHT22;6065;48.138;16.402;2023-11-19T09:58:57;5.20;99.90
12013;DHT22;6065;48.138;16.402;2023-11-19T10:01:23;5.30;99.90
12013;DHT22;6065;48.138;16.402;2023-11-19T10:03:50;5.30;99.90
12013;DHT22;6065;48.138;16.402;2023-11-19T10:06:19;5.30;99.90
12013;DHT22;6065;48.138;16.402;2023-11-19T10:08:46;5.30;99.90
12013;DHT22;6065;48.138;16.402;2023-11-19T10:11:13;5.30;99.90
12013;DHT22;6065;48.138;16.402;2023-11-19T10:13:42;5.30;99.90
12013;DHT22;6065;48.138;16.402;2023-11-19T10:16:10;5.30;99.90
12013;DHT22;6065;48.138;16.402;2023-11-19T10:18:42;5.40;99.90
12013;DHT22;6065;48.138;16.402;2023-11-19T10:21:10;5.40;99.90
12013;DHT22;6065;48.138;16.402;2023-11-19T10:23:47;5.40;99.90
12013;DHT22;6065;48.138;16.402;2023-11-19T10:26:14;5.40;99.90
12013;DHT22;6065;48.138;16.402;2023-11-19T10:28:42;5.40;99.90
12013;DHT22;6065;48.138;16.402;2023-11-19T10:31:11;5.40;99.90
12013;DHT22;6065;48.138;16.402;2023-11-19T10:33:38;5.40;99.90
12013;DHT22;6065;48.138;16.402;2023-11-19T10:36:05;5.40;99.90
12013;DHT22;6065;48.138;16.402;2023-11-19T10:38:32;5.30;99.90
12013;DHT22;6065;48.138;16.402;2023-11-19T10:40:59;5.30;99.90
12013;DHT22;6065;48.138;16.402;2023-11-19T10:43:26;5.30;99.90
12013;DHT22;6065;48.138;16.402;2023-11-19T10:45:54;5.30;99.90
12013;DHT22;6065;48.138;16.402;2023-11-19T10:48:34;5.40;99.90
12013;DHT22;6065;48.138;16.402;2023-11-19T10:51:01;5.40;99.90
12013;DHT22;6065;48.138;16.402;2023-11-19T10:53:31;5.40;99.90
12013;DHT22;6065;48.138;16.402;2023-11-19T10:56:00;5.40;99.90
12013;DHT22;6065;48.138;16.402;2023-11-19T10:58:28;5.50;99.90
12013;DHT22;6065;48.138;16.402;2023-11-19T11:00:57;5.40;99.90
12013;DHT22;6065;48.138;16.402;2023-11-19T11:03:25;5.50;99.90
12013;DHT22;6065;48.138;16.402;2023-11-19T11:05:53;5.50;99.90
12013;DHT22;6065;48.138;16.402;2023-11-19T11:08:20;5.50;99.90
12013;DHT22;6065;48.138;16.402;2023-11-19T11:10:48;5.50;99.90
12013;DHT22;6065;48.138;16.402;2023-11-19T11:13:16;5.50;99.90
12013;DHT22;6065;48.138;16.402;2023-11-19T11:15:43;5.50;99.90
12013;DHT22;6065;48.138;16.402;2023-11-19T11:18:13;5.50;99.90
12013;DHT22;6065;48.138;16.402;2023-11-19T11:20:40;5.60;99.90
12013;DHT22;6065;48.138;16.402;2023-11-19T11:23:15;5.60;99.90
12013;DHT22;6065;48.138;16.402;2023-11-19T11:25:48;5.60;99.90
12013;DHT22;6065;48.138;16.402;2023-11-19T11:28:20;5.70;99.90
12013;DHT22;6065;48.138;16.402;2023-11-19T11:30:53;5.70;99.90
12013;DHT22;6065;48.138;16.402;2023-11-19T11:33:29;5.70;99.90
12013;DHT22;6065;48.138;16.402;2023-11-19T11:36:01;5.70;99.90
12013;DHT22;6065;48.138;16.402;2023-11-19T11:38:31;5.70;99.90
12013;DHT22;6065;48.138;16.402;2023-11-19T11:41:15;5.70;99.90
12013;DHT22;6065;48.138;16.402;2023-11-19T11:43:45;5.70;99.90
12013;DHT22;6065;48.138;16.402;2023-11-19T11:48:55;5.70;99.90
12013;DHT22;6065;48.138;16.402;2023-11-19T11:54:07;5.80;99.90
12013;DHT22;6065;48.138;16.402;2023-11-19T11:56:36;5.70;99.90
12013;DHT22;6065;48.138;16.402;2023-11-19T11:59:03;5.70;99.90
12013;DHT22;6065;48.138;16.402;2023-11-19T12:01:33;5.70;99.90
12013;DHT22;6065;48.138;16.402;2023-11-19T12:04:03;5.70;99.90
12013;DHT22;6065;48.138;16.402;2023-11-19T12:06:32;5.70;99.90
12013;DHT22;6065;48.138;16.402;2023-11-19T12:08:59;5.70;99.90
12013;DHT22;6065;48.138;16.402;2023-11-19T12:11:26;5.80;99.90
12013;DHT22;6065;48.138;16.402;2023-11-19T12:13:55;5.80;99.90
12013;DHT22;6065;48.138;16.402;2023-11-19T12:16:23;5.80;99.90
12013;DHT22;6065;48.138;16.402;2023-11-19T12:18:53;5.80;99.90
12013;DHT22;6065;48.138;16.402;2023-11-19T12:21:30;5.80;99.90
12013;DHT22;6065;48.138;16.402;2023-11-19T12:23:58;5.80;99.90
12013;DHT22;6065;48.138;16.402;2023-11-19T12:26:37;5.80;99.90
12013;DHT22;6065;48.138;16.402;2023-11-19T12:29:04;5.80;99.90
12013;DHT22;6065;48.138;16.402;2023-11-19T12:31:31;5.90;99.90
12013;DHT22;6065;48.138;16.402;2023-11-19T12:34:05;5.90;99.90
12013;DHT22;6065;48.138;16.402;2023-11-19T12:36:33;5.90;99.90
12013;DHT22;6065;48.138;16.402;2023-11-19T12:39:00;5.90;99.90
12013;DHT22;6065;48.138;16.402;2023-11-19T12:41:27;5.90;99.90
12013;DHT22;6065;48.138;16.402;2023-11-19T12:43:54;6.00;99.90
12013;DHT22;6065;48.138;16.402;2023-11-19T12:46:34;6.00;99.90
12013;DHT22;6065;48.138;16.402;2023-11-19T12:49:01;6.00;99.90
12013;DHT22;6065;48.138;16.402;2023-11-19T12:51:30;6.00;99.90
12013;DHT22;6065;48.138;16.402;2023-11-19T12:53:58;6.00;99.90
12013;DHT22;6065;48.138;16.402;2023-11-19T12:56:25;6.00;99.90
12013;DHT22;6065;48.138;16.402;2023-11-19T12:58:52;6.00;99.90
12013;DHT22;6065;48.138;16.402;2023-11-19T13:01:19;6.00;99.90
12013;DHT22;6065;48.138;16.402;2023-11-19T13:03:46;6.00;99.90
12013;DHT22;6065;48.138;16.402;2023-11-19T13:06:14;6.00;99.90
12013;DHT22;6065;48.138;16.402;2023-11-19T13:08:41;6.00;99.90
12013;DHT22;6065;48.138;16.402;2023-11-19T13:11:11;6.00;99.90
12013;DHT22;6065;48.138;16.402;2023-11-19T13:13:54;6.00;99.90
12013;DHT22;6065;48.138;16.402;2023-11-19T13:16:20;6.00;99.90
12013;DHT22;6065;48.138;16.402;2023-11-19T13:18:47;6.00;99.90
12013;DHT22;6065;48.138;16.402;2023-11-19T13:21:14;6.00;99.90
12013;DHT22;6065;48.138;16.402;2023-11-19T13:23:41;6.00;99.90
12013;DHT22;6065;48.138;16.402;2023-11-19T13:26:08;6.00;99.90
12013;DHT22;6065;48.138;16.402;2023-11-19T13:28:36;6.00;99.90
12013;DHT22;6065;48.138;16.402;2023-11-19T13:31:03;6.00;99.90
12013;DHT22;6065;48.138;16.402;2023-11-19T13:33:30;6.10;99.90
12013;DHT22;6065;48.138;16.402;2023-11-19T13:35:56;6.10;99.90
12013;DHT22;6065;48.138;16.402;2023-11-19T13:38:23;6.10;99.90
12013;DHT22;6065;48.138;16.402;2023-11-19T13:40:50;6.10;99.90
12013;DHT22;6065;48.138;16.402;2023-11-19T13:43:17;6.10;99.90
12013;DHT22;6065;48.138;16.402;2023-11-19T13:45:45;6.10;99.90
12013;DHT22;6065;48.138;16.402;2023-11-19T13:48:12;6.10;99.90
12013;DHT22;6065;48.138;16.402;2023-11-19T13:50:39;6.10;99.90
12013;DHT22;6065;48.138;16.402;2023-11-19T13:53:06;6.10;99.90
12013;DHT22;6065;48.138;16.402;2023-11-19T13:55:33;6.10;99.90
12013;DHT22;6065;48.138;16.402;2023-11-19T13:58:00;6.20;99.90
12013;DHT22;6065;48.138;16.402;2023-11-19T14:00:26;6.20;99.90
12013;DHT22;6065;48.138;16.402;2023-11-19T14:02:55;6.30;99.90
12013;DHT22;6065;48.138;16.402;2023-11-19T14:05:21;6.30;99.90
12013;DHT22;6065;48.138;16.402;2023-11-19T14:07:48;6.20;99.90
12013;DHT22;6065;48.138;16.402;2023-11-19T14:10:17;6.30;99.90
12013;DHT22;6065;48.138;16.402;2023-11-19T14:12:44;6.20;99.90
12013;DHT22;6065;48.138;16.402;2023-11-19T14:15:11;6.20;99.90
12013;DHT22;6065;48.138;16.402;2023-11-19T14:17:39;6.20;99.90
12013;DHT22;6065;48.138;16.402;2023-11-19T14:20:07;6.20;99.90
12013;DHT22;6065;48.138;16.402;2023-11-19T14:22:38;6.20;99.90
12013;DHT22;6065;48.138;16.402;2023-11-19T14:25:05;6.20;99.90
12013;DHT22;6065;48.138;16.402;2023-11-19T14:27:35;6.20;99.90
12013;DHT22;6065;48.138;16.402;2023-11-19T14:30:02;6.10;99.90
12013;DHT22;6065;48.138;16.402;2023-11-19T14:32:29;6.20;99.90
12013;DHT22;6065;48.138;16.402;2023-11-19T14:34:56;6.10;99.90
12013;DHT22;6065;48.138;16.402;2023-11-19T14:37:24;6.10;99.90
12013;DHT22;6065;48.138;16.402;2023-11-19T14:39:51;6.10;99.90
12013;DHT22;6065;48.138;16.402;2023-11-19T14:42:17;6.10;99.90
12013;DHT22;6065;48.138;16.402;2023-11-19T14:44:44;6.10;99.90
12013;DHT22;6065;48.138;16.402;2023-11-19T14:47:11;6.10;99.90
12013;DHT22;6065;48.138;16.402;2023-11-19T14:49:38;6.10;99.90
12013;DHT22;6065;48.138;16.402;2023-11-19T14:52:04;6.10;99.90
12013;DHT22;6065;48.138;16.402;2023-11-19T14:54:32;6.10;99.90
12013;DHT22;6065;48.138;16.402;2023-11-19T14:56:59;6.10;99.90
12013;DHT22;6065;48.138;16.402;2023-11-19T14:59:26;6.10;99.90
12013;DHT22;6065;48.138;16.402;2023-11-19T15:01:53;6.10;99.90
12013;DHT22;6065;48.138;16.402;2023-11-19T15:04:20;6.10;99.90
12013;DHT22;6065;48.138;16.402;2023-11-19T15:06:47;6.10;99.90
12013;DHT22;6065;48.138;16.402;2023-11-19T15:09:13;6.10;99.90
12013;DHT22;6065;48.138;16.402;2023-11-19T15:11:44;6.10;99.90
12013;DHT22;6065;48.138;16.402;2023-11-19T15:14:11;6.10;99.90
12013;DHT22;6065;48.138;16.402;2023-11-19T15:16:40;6.10;99.90
12013;DHT22;6065;48.138;16.402;2023-11-19T15:19:07;6.10;99.90
12013;DHT22;6065;48.138;16.402;2023-11-19T15:21:33;6.10;99.90
12013;DHT22;6065;48.138;16.402;2023-11-19T15:24:00;6.10;99.90
12013;DHT22;6065;48.138;16.402;2023-11-19T15:26:29;6.10;99.90
12013;DHT22;6065;48.138;16.402;2023-11-19T15:28:57;6.10;99.90
12013;DHT22;6065;48.138;16.402;2023-11-19T15:31:24;6.10;99.90
12013;DHT22;6065;48.138;16.402;2023-11-19T15:33:51;6.00;99.90
12013;DHT22;6065;48.138;16.402;2023-11-19T15:36:18;6.10;99.90
12013;DHT22;6065;48.138;16.402;2023-11-19T15:38:45;6.00;99.90
12013;DHT22;6065;48.138;16.402;2023-11-19T15:41:12;6.00;99.90
12013;DHT22;6065;48.138;16.402;2023-11-19T15:43:39;6.00;99.90
12013;DHT22;6065;48.138;16.402;2023-11-19T15:46:07;6.10;99.90
12013;DHT22;6065;48.138;16.402;2023-11-19T15:48:34;6.10;99.90
12013;DHT22;6065;48.138;16.402;2023-11-19T15:51:01;6.10;99.90
12013;DHT22;6065;48.138;16.402;2023-11-19T15:53:28;6.00;99.90